Time;durP1;ratioP1;P1;durP2;ratioP2;P2;SDS_P1;SDS_P2;PMS_P1;PMS_P2;Temp;Humidity;BMP_temperature;BMP_pressure;BME280_temperature;BME280_humidity;BME280_pressure;Samples;Min_cycle;Max_cycle;Signal;HPM_P1;HPM_P2
2022/04/06 00:01:41;;;;;;;16.30;13.75;;;;;;;10.35;100.00;98700.09;5052386;28;20287;-83
2022/04/06 00:04:07;;;;;;;16.65;13.38;;;;;;;10.43;100.00;98695.03;5053093;28;20205;-84
2022/04/06 00:06:34;;;;;;;15.73;13.35;;;;;;;10.44;100.00;98690.50;5052838;28;20199;-84
2022/04/06 00:09:01;;;;;;;16.77;13.35;;;;;;;10.34;100.00;98700.22;5052558;28;20211;-83
2022/04/06 00:11:27;;;;;;;17.85;15.25;;;;;;;10.43;100.00;98694.19;5052188;28;20546;-84
2022/04/06 00:13:54;;;;;;;16.95;13.68;;;;;;;10.47;100.00;98692.13;5052640;28;20186;-84
2022/04/06 00:16:21;;;;;;;16.13;13.63;;;;;;;10.38;100.00;98688.28;5052426;28;20197;-84
2022/04/06 00:18:49;;;;;;;16.10;12.68;;;;;;;10.38;100.00;98686.44;5052510;28;20551;-83
2022/04/06 00:21:15;;;;;;;17.25;13.32;;;;;;;10.47;100.00;98686.72;5052605;28;20200;-84
2022/04/06 00:23:42;;;;;;;15.50;12.48;;;;;;;10.34;100.00;98693.00;5052016;28;20186;-83
2022/04/06 00:26:09;;;;;;;19.88;13.35;;;;;;;10.41;100.00;98683.53;5052471;28;20206;-84
2022/04/06 00:28:35;;;;;;;17.02;13.63;;;;;;;10.17;100.00;98677.16;5052334;28;20196;-84
2022/04/06 00:31:03;;;;;;;16.80;13.45;;;;;;;10.13;100.00;98676.53;5052109;28;20299;-84
2022/04/06 00:33:29;;;;;;;16.75;13.85;;;;;;;10.37;100.00;98676.63;5052309;28;20200;-84
2022/04/06 00:35:57;;;;;;;18.77;13.65;;;;;;;10.12;100.00;98669.44;5066482;28;20189;-84
2022/04/06 00:38:24;;;;;;;17.98;14.30;;;;;;;10.22;100.00;98670.50;5052065;28;20223;-83
2022/04/06 00:40:51;;;;;;;16.05;13.45;;;;;;;10.32;100.00;98668.03;5054422;28;20201;-83
2022/04/06 00:43:17;;;;;;;17.42;13.75;;;;;;;10.40;100.00;98667.47;5056626;28;20193;-83
2022/04/06 00:45:44;;;;;;;16.73;12.80;;;;;;;10.28;100.00;98669.19;5048856;28;20663;-84
2022/04/06 00:48:12;;;;;;;17.83;13.02;;;;;;;10.37;100.00;98654.25;5056489;28;20203;-84
2022/04/06 00:50:41;;;;;;;16.30;13.50;;;;;;;10.27;100.00;98661.25;5056145;28;20243;-83
2022/04/06 00:53:09;;;;;;;15.82;13.60;;;;;;;10.15;100.00;98652.22;5056325;28;20276;-83
2022/04/06 00:55:39;;;;;;;16.38;13.18;;;;;;;10.22;100.00;98662.44;5056398;28;20626;-83
2022/04/06 00:58:07;;;;;;;14.95;12.25;;;;;;;10.21;100.00;98649.94;5056269;28;20236;-83
2022/04/06 01:00:34;;;;;;;16.75;12.80;;;;;;;10.30;100.00;98648.44;5055965;28;20193;-83
2022/04/06 01:03:03;;;;;;;16.42;11.52;;;;;;;10.28;100.00;98647.66;5056133;28;20191;-84
2022/04/06 01:05:30;;;;;;;17.08;12.45;;;;;;;10.23;100.00;98647.16;5055925;28;20204;-83
2022/04/06 01:08:00;;;;;;;17.30;13.70;;;;;;;10.34;100.00;98649.09;5056432;28;20196;-84
2022/04/06 01:10:28;;;;;;;15.18;12.90;;;;;;;10.28;100.00;98644.13;5055766;28;20200;-84
2022/04/06 01:12:56;;;;;;;19.80;13.10;;;;;;;10.32;100.00;98640.28;5055746;28;20256;-83
2022/04/06 01:15:23;;;;;;;16.42;13.25;;;;;;;10.26;100.00;98635.31;5055482;28;20196;-84
2022/04/06 01:17:50;;;;;;;19.35;14.00;;;;;;;10.19;100.00;98643.81;5055710;28;20201;-83
2022/04/06 01:20:16;;;;;;;17.00;13.70;;;;;;;10.27;100.00;98629.81;5055943;28;20287;-83
2022/04/06 01:22:44;;;;;;;18.35;14.00;;;;;;;10.26;100.00;98643.38;5055752;28;20185;-83
2022/04/06 01:25:11;;;;;;;16.55;13.70;;;;;;;10.22;100.00;98638.22;5055362;28;20292;-84
2022/04/06 01:27:38;;;;;;;16.13;12.88;;;;;;;10.33;100.00;98628.53;5055843;28;20192;-83
2022/04/06 01:30:06;;;;;;;17.85;13.77;;;;;;;10.35;100.00;98634.66;5055309;28;20189;-84
2022/04/06 01:32:35;;;;;;;18.42;13.80;;;;;;;10.32;100.00;98627.69;5059909;28;20189;-83
2022/04/06 01:35:03;;;;;;;17.45;12.27;;;;;;;10.38;100.00;98626.41;5061641;28;20738;-83
2022/04/06 01:37:31;;;;;;;17.73;13.52;;;;;;;10.31;100.00;98628.66;5067531;28;20200;-84
2022/04/06 01:39:59;;;;;;;17.83;13.25;;;;;;;10.26;100.00;98621.84;5059266;28;20193;-84
2022/04/06 01:42:26;;;;;;;18.08;12.45;;;;;;;10.32;100.00;98616.06;5055116;28;20193;-83
2022/04/06 01:44:53;;;;;;;16.02;12.48;;;;;;;10.15;100.00;98611.84;5055103;28;20206;-84
2022/04/06 01:47:21;;;;;;;14.50;11.80;;;;;;;10.02;100.00;98614.59;5055266;28;20664;-83
2022/04/06 01:52:34;;;;;;;16.83;13.43;;;;;;;10.43;100.00;98616.16;5054998;28;20243;-83
2022/04/06 01:55:04;;;;;;;14.02;11.65;;;;;;;10.25;100.00;98612.94;5054984;28;20232;-83
2022/04/06 01:57:32;;;;;;;14.15;11.93;;;;;;;10.19;100.00;98611.53;5054909;28;20611;-83
2022/04/06 02:00:00;;;;;;;13.07;10.60;;;;;;;10.31;100.00;98612.53;5054942;28;20192;-83
2022/04/06 02:02:30;;;;;;;15.77;11.70;;;;;;;10.42;100.00;98606.34;5054706;28;20189;-84
2022/04/06 02:04:58;;;;;;;13.00;10.38;;;;;;;10.34;100.00;98608.75;5054889;28;20720;-83
2022/04/06 02:07:25;;;;;;;12.98;10.18;;;;;;;10.34;100.00;98606.91;5055264;28;20271;-85
2022/04/06 02:09:52;;;;;;;13.05;10.48;;;;;;;10.30;100.00;98600.03;5054586;28;20201;-83
2022/04/06 02:12:22;;;;;;;13.75;11.27;;;;;;;10.47;100.00;98604.19;5054821;28;20638;-84
2022/04/06 02:14:49;;;;;;;13.05;10.45;;;;;;;10.38;100.00;98600.34;5054499;28;20198;-84
2022/04/06 02:17:16;;;;;;;11.25;9.50;;;;;;;10.39;100.00;98595.81;5054525;28;20197;-83
2022/04/06 02:19:42;;;;;;;12.25;9.75;;;;;;;10.40;100.00;98593.00;5054882;28;20203;-83
2022/04/06 02:22:10;;;;;;;12.32;10.45;;;;;;;10.41;100.00;98588.47;5054174;28;20525;-84
2022/04/06 02:24:36;;;;;;;14.45;10.60;;;;;;;10.40;100.00;98586.75;5054440;28;20227;-83
2022/04/06 02:27:07;;;;;;;16.02;11.35;;;;;;;10.31;100.00;98588.31;5055914;28;20551;-84
2022/04/06 02:29:35;;;;;;;13.77;10.45;;;;;;;10.28;100.00;98591.16;5054071;28;20604;-84
2022/04/06 02:32:01;;;;;;;14.20;11.30;;;;;;;10.32;100.00;98589.16;5054056;28;20203;-83
2022/04/06 02:34:28;;;;;;;14.00;11.63;;;;;;;10.38;100.00;98586.03;5053941;28;20185;-83
2022/04/06 02:36:54;;;;;;;13.50;11.00;;;;;;;10.33;100.00;98580.97;5054459;28;20732;-84
2022/04/06 02:39:21;;;;;;;12.25;10.50;;;;;;;10.34;100.00;98582.69;5053904;28;20193;-84
2022/04/06 02:41:48;;;;;;;13.80;11.60;;;;;;;10.44;100.00;98583.72;5054052;28;20211;-84
2022/04/06 02:44:15;;;;;;;14.00;10.80;;;;;;;10.39;100.00;98579.66;5053990;28;20287;-83
2022/04/06 02:46:43;;;;;;;13.77;11.10;;;;;;;10.40;100.00;98584.06;5053774;28;20190;-83
2022/04/06 02:49:10;;;;;;;13.70;11.23;;;;;;;10.47;100.00;98584.47;5046696;28;20193;-83
2022/04/06 02:51:36;;;;;;;14.07;11.25;;;;;;;10.38;100.00;98576.13;5053706;28;20192;-84
2022/04/06 02:54:03;;;;;;;14.50;11.57;;;;;;;10.30;100.00;98574.97;5053716;28;20615;-83
2022/04/06 02:56:30;;;;;;;15.68;12.65;;;;;;;10.35;100.00;98581.72;5053660;28;20650;-84
2022/04/06 02:58:56;;;;;;;16.50;12.68;;;;;;;10.40;100.00;98571.50;5053628;28;20235;-84
2022/04/06 03:01:23;;;;;;;17.13;11.98;;;;;;;10.52;100.00;98569.72;5053820;28;20184;-85
2022/04/06 03:03:51;;;;;;;14.90;11.55;;;;;;;10.49;100.00;98569.06;5052961;28;20192;-84
2022/04/06 03:06:17;;;;;;;15.63;12.50;;;;;;;10.36;100.00;98567.28;5053980;28;20207;-84
2022/04/06 03:08:44;;;;;;;17.50;12.10;;;;;;;10.43;100.00;98573.09;5053581;28;20224;-84
2022/04/06 03:11:11;;;;;;;16.60;12.60;;;;;;;10.50;100.00;98578.88;5053833;28;20182;-84
2022/04/06 03:13:38;;;;;;;18.73;13.05;;;;;;;10.38;100.00;98572.56;5053521;28;20192;-83
2022/04/06 03:16:05;;;;;;;17.63;13.63;;;;;;;10.45;100.00;98568.47;5053500;28;20205;-84
2022/04/06 03:18:32;;;;;;;20.35;12.80;;;;;;;10.43;100.00;98571.25;5053388;28;20197;-83
2022/04/06 03:21:00;;;;;;;17.63;12.35;;;;;;;10.44;100.00;98559.50;5053700;28;20189;-84
2022/04/06 03:23:27;;;;;;;16.00;13.10;;;;;;;10.30;100.00;98564.19;5053677;28;20196;-84
2022/04/06 03:25:53;;;;;;;17.63;14.77;;;;;;;10.31;100.00;98556.03;5052840;28;20214;-84
2022/04/06 03:28:20;;;;;;;15.65;13.57;;;;;;;10.33;100.00;98559.44;5053276;28;20195;-84
2022/04/06 03:30:47;;;;;;;15.73;12.52;;;;;;;10.46;100.00;98550.47;5051525;28;20234;-84
2022/04/06 03:33:15;;;;;;;19.60;15.00;;;;;;;10.48;100.00;98551.22;5053376;28;20203;-84
2022/04/06 03:35:42;;;;;;;18.55;14.40;;;;;;;10.33;100.00;98556.75;5053065;28;20185;-84
2022/04/06 03:38:10;;;;;;;17.73;12.73;;;;;;;10.35;100.00;98551.25;5053202;28;20207;-84
2022/04/06 03:40:37;;;;;;;22.50;14.30;;;;;;;10.29;100.00;98543.63;5053470;28;20232;-83
2022/04/06 03:43:04;;;;;;;15.70;13.60;;;;;;;10.49;100.00;98539.47;5052561;28;20196;-84
2022/04/06 03:45:30;;;;;;;17.75;13.50;;;;;;;10.23;100.00;98537.69;5050333;28;20608;-84
2022/04/06 03:47:57;;;;;;;18.38;14.13;;;;;;;10.42;100.00;98528.28;5052747;28;20198;-83
2022/04/06 03:50:23;;;;;;;15.40;12.73;;;;;;;10.37;100.00;98527.78;5052453;28;20642;-83
2022/04/06 03:52:50;;;;;;;17.60;13.05;;;;;;;10.49;100.00;98526.00;5044689;28;20275;-84
2022/04/06 03:55:18;;;;;;;16.88;12.93;;;;;;;10.53;100.00;98528.34;5053286;28;20223;-84
2022/04/06 03:57:45;;;;;;;17.42;13.73;;;;;;;10.55;100.00;98536.31;5052378;28;20233;-83
2022/04/06 04:00:12;;;;;;;20.05;15.02;;;;;;;10.53;100.00;98533.75;5052376;28;20627;-83
2022/04/06 04:02:39;;;;;;;17.33;13.38;;;;;;;10.54;100.00;98526.53;5052254;28;20202;-84
2022/04/06 04:05:06;;;;;;;16.52;12.90;;;;;;;10.60;100.00;98528.75;5052506;28;20212;-83
2022/04/06 04:07:37;;;;;;;13.68;12.02;;;;;;;10.57;100.00;98529.84;5052143;28;20204;-83
2022/04/06 04:10:05;;;;;;;14.85;12.13;;;;;;;10.49;100.00;98528.69;5052562;28;20552;-84
2022/04/06 04:12:33;;;;;;;16.95;12.55;;;;;;;10.26;100.00;98533.94;5052300;28;20199;-84
2022/04/06 04:15:00;;;;;;;15.60;11.82;;;;;;;10.34;100.00;98528.88;5052160;28;20204;-84
2022/04/06 04:17:26;;;;;;;15.07;12.02;;;;;;;10.44;100.00;98523.66;5052850;28;20218;-83
2022/04/06 04:19:53;;;;;;;18.42;12.15;;;;;;;10.40;100.00;98519.47;5052525;28;20290;-83
2022/04/06 04:22:19;;;;;;;15.90;11.90;;;;;;;10.31;100.00;98518.34;5052593;28;20204;-84
2022/04/06 04:24:46;;;;;;;14.68;12.20;;;;;;;10.46;100.00;98512.78;5052034;28;20184;-83
2022/04/06 04:27:12;;;;;;;16.42;11.75;;;;;;;10.40;100.00;98516.78;5068993;28;20197;-84
2022/04/06 04:29:40;;;;;;;17.73;11.77;;;;;;;10.47;100.00;98515.38;5069760;28;20680;-84
2022/04/06 04:32:10;;;;;;;16.55;12.65;;;;;;;10.49;100.00;98508.06;5052973;28;20299;-84
2022/04/06 04:34:36;;;;;;;15.98;12.35;;;;;;;10.56;100.00;98513.81;5044070;28;20185;-84
2022/04/06 04:37:03;;;;;;;14.85;11.93;;;;;;;10.56;100.00;98519.19;5051587;28;20199;-85
2022/04/06 04:39:42;;;;;;;16.77;12.95;;;;;;;10.30;100.00;98507.69;5052167;28;20643;-84
2022/04/06 04:42:09;;;;;;;14.52;11.70;;;;;;;10.39;100.00;98509.69;5052190;28;20642;-83
2022/04/06 04:44:36;;;;;;;18.23;12.65;;;;;;;10.50;100.00;98504.38;5044743;28;20200;-84
2022/04/06 04:47:04;;;;;;;16.98;12.00;;;;;;;10.47;100.00;98512.69;5051528;28;20228;-84
2022/04/06 04:49:30;;;;;;;17.92;13.18;;;;;;;10.33;100.00;98504.78;5051395;28;20188;-84
2022/04/06 04:51:57;;;;;;;15.88;11.68;;;;;;;10.44;100.00;98515.59;5052148;28;20199;-85
2022/04/06 04:54:24;;;;;;;16.77;12.00;;;;;;;10.36;100.00;98507.25;5052140;28;20258;-84
2022/04/06 04:56:52;;;;;;;16.88;12.43;;;;;;;10.38;100.00;98505.31;5051305;28;20190;-84
2022/04/06 04:59:19;;;;;;;18.55;13.57;;;;;;;10.39;100.00;98509.69;5051363;28;20232;-84
2022/04/06 05:01:46;;;;;;;17.23;12.63;;;;;;;10.41;100.00;98507.75;5051830;28;20567;-84
2022/04/06 05:04:14;;;;;;;17.55;12.25;;;;;;;10.41;100.00;98511.31;5051464;28;20562;-85
2022/04/06 05:06:40;;;;;;;16.48;11.77;;;;;;;10.42;100.00;98510.34;5051435;28;20210;-85
2022/04/06 05:09:07;;;;;;;20.58;13.52;;;;;;;10.39;100.00;98507.00;5051964;28;20199;-84
2022/04/06 05:11:34;;;;;;;21.67;11.93;;;;;;;10.32;100.00;98503.06;5051436;28;20194;-84
2022/04/06 05:14:00;;;;;;;17.90;12.95;;;;;;;10.32;100.00;98506.59;5052086;28;20215;-84
2022/04/06 05:16:27;;;;;;;23.30;13.15;;;;;;;10.39;100.00;98509.69;5051725;28;20642;-84
2022/04/06 05:18:54;;;;;;;19.67;13.13;;;;;;;10.40;100.00;98501.53;5051635;28;20199;-85
2022/04/06 05:21:22;;;;;;;16.23;12.63;;;;;;;10.30;100.00;98502.31;5051131;28;20283;-84
2022/04/06 05:23:49;;;;;;;16.73;12.35;;;;;;;10.42;100.00;98504.09;5051433;28;20296;-85
2022/04/06 05:26:16;;;;;;;17.30;12.27;;;;;;;10.53;100.00;98504.13;5052864;28;20223;-85
2022/04/06 05:28:45;;;;;;;15.00;11.20;;;;;;;10.44;100.00;98502.13;5056103;28;20229;-83
2022/04/06 05:31:14;;;;;;;15.75;11.50;;;;;;;10.41;100.00;98495.16;5053488;28;20201;-84
2022/04/06 05:33:40;;;;;;;15.00;11.45;;;;;;;10.25;100.00;98501.78;5055476;28;20550;-84
2022/04/06 05:36:07;;;;;;;17.33;12.82;;;;;;;10.33;100.00;98499.38;5054624;28;20210;-86
2022/04/06 05:38:35;;;;;;;96.05;51.50;;;;;;;10.44;100.00;98503.00;5055110;28;20648;-84
2022/04/06 05:41:03;;;;;;;20.50;14.55;;;;;;;10.47;100.00;98504.63;5055517;28;20245;-84
2022/04/06 05:43:30;;;;;;;14.80;10.88;;;;;;;10.43;100.00;98506.66;5054830;28;20207;-84
2022/04/06 05:45:56;;;;;;;15.50;13.02;;;;;;;10.64;100.00;98500.63;5054904;28;20208;-85
2022/04/06 05:48:23;;;;;;;20.33;16.08;;;;;;;10.60;100.00;98504.53;5054419;28;20290;-84
2022/04/06 05:50:50;;;;;;;25.83;18.00;;;;;;;10.68;100.00;98503.97;5054419;28;20195;-83
2022/04/06 05:53:16;;;;;;;21.58;15.82;;;;;;;10.80;100.00;98503.03;5054771;28;20181;-84
2022/04/06 05:55:47;;;;;;;15.13;11.23;;;;;;;10.71;100.00;98501.03;5054839;28;20634;-84
2022/04/06 05:58:14;;;;;;;19.83;13.63;;;;;;;10.68;100.00;98503.97;5054262;28;20308;-83
2022/04/06 06:00:41;;;;;;;19.85;13.82;;;;;;;10.78;100.00;98502.28;5053669;28;20275;-84
2022/04/06 06:03:07;;;;;;;13.25;10.15;;;;;;;10.68;100.00;98498.59;5052797;28;20192;-85
2022/04/06 06:05:34;;;;;;;18.85;12.95;;;;;;;10.89;100.00;98510.38;5053947;28;20566;-84
2022/04/06 06:08:01;;;;;;;14.80;9.00;;;;;;;10.64;100.00;98506.03;5054505;28;20624;-84
2022/04/06 06:10:27;;;;;;;16.88;10.32;;;;;;;10.58;100.00;98510.06;5053732;28;20193;-84
2022/04/06 06:12:55;;;;;;;15.10;8.90;;;;;;;10.72;100.00;98509.00;5054381;28;20601;-84
2022/04/06 06:15:22;;;;;;;12.77;7.88;;;;;;;10.68;100.00;98509.34;5053620;28;20199;-83
2022/04/06 06:17:48;;;;;;;13.45;9.25;;;;;;;10.75;100.00;98510.59;5053517;28;20271;-83
2022/04/06 06:20:15;;;;;;;9.85;8.25;;;;;;;10.60;100.00;98507.22;5054525;28;20538;-84
2022/04/06 06:22:42;;;;;;;10.05;8.18;;;;;;;10.47;100.00;98501.03;5054367;28;20185;-84
2022/04/06 06:25:09;;;;;;;12.43;9.30;;;;;;;10.68;100.00;98498.59;5053780;28;20190;-84
2022/04/06 06:27:39;;;;;;;12.63;8.60;;;;;;;10.76;100.00;98496.16;5053473;28;20227;-84
2022/04/06 06:30:10;;;;;;;14.32;8.82;;;;;;;10.80;100.00;98497.63;5053736;28;20193;-85
2022/04/06 06:32:37;;;;;;;9.90;8.18;;;;;;;10.73;100.00;98507.16;5054011;28;20274;-84
2022/04/06 06:35:04;;;;;;;13.05;9.27;;;;;;;10.81;100.00;98493.97;5057308;28;20287;-84
2022/04/06 06:37:31;;;;;;;11.65;8.10;;;;;;;10.75;100.00;98498.00;5053757;28;20182;-84
2022/04/06 06:39:59;;;;;;;12.60;8.05;;;;;;;10.85;100.00;98501.72;5053384;28;20197;-84
2022/04/06 06:42:25;;;;;;;16.63;8.52;;;;;;;10.72;100.00;98505.44;5053562;28;20228;-84
2022/04/06 06:44:52;;;;;;;14.35;8.32;;;;;;;10.70;100.00;98504.72;5052924;28;20189;-84
2022/04/06 06:47:20;;;;;;;15.52;8.15;;;;;;;10.93;100.00;98498.41;5053626;28;20295;-83
2022/04/06 06:49:47;;;;;;;12.30;7.50;;;;;;;11.02;100.00;98504.94;5053537;28;20192;-84
2022/04/06 06:52:14;;;;;;;9.90;8.25;;;;;;;11.12;100.00;98500.53;5053151;28;20550;-84
2022/04/06 06:54:40;;;;;;;16.33;11.40;;;;;;;11.26;100.00;98499.44;5053053;28;20280;-84
2022/04/06 06:57:07;;;;;;;14.80;8.40;;;;;;;11.00;100.00;98488.88;5053433;28;20272;-84
2022/04/06 06:59:33;;;;;;;10.85;7.55;;;;;;;10.83;100.00;98490.19;5052293;28;20229;-84
2022/04/06 07:02:00;;;;;;;12.40;8.43;;;;;;;10.90;100.00;98484.31;5052764;28;20521;-84
2022/04/06 07:04:28;;;;;;;11.45;7.65;;;;;;;10.81;100.00;98488.59;5053078;28;20675;-84
2022/04/06 07:06:54;;;;;;;14.43;8.75;;;;;;;10.54;100.00;98488.88;5053676;28;20221;-84
2022/04/06 07:09:21;;;;;;;19.85;12.55;;;;;;;10.88;100.00;98489.84;5058843;28;20235;-84
2022/04/06 07:11:48;;;;;;;12.73;7.55;;;;;;;10.70;100.00;98483.19;5052885;28;20211;-83
2022/04/06 07:14:14;;;;;;;13.07;9.15;;;;;;;10.44;100.00;98483.28;5052828;28;20190;-82
2022/04/06 07:16:41;;;;;;;13.13;8.25;;;;;;;10.34;100.00;98479.59;5053831;28;20184;-83
2022/04/06 07:19:07;;;;;;;12.38;8.27;;;;;;;10.58;100.00;98493.91;5053986;28;20199;-83
2022/04/06 07:21:35;;;;;;;14.02;8.10;;;;;;;10.64;100.00;98479.09;5054119;28;20188;-83
2022/04/06 07:24:03;;;;;;;11.27;7.30;;;;;;;10.70;100.00;98472.41;5054044;28;20203;-83
2022/04/06 07:26:29;;;;;;;12.98;8.30;;;;;;;10.91;100.00;98477.97;5053327;28;20207;-82
2022/04/06 07:28:56;;;;;;;10.88;7.68;;;;;;;11.13;100.00;98475.31;5052756;28;20554;-83
2022/04/06 07:31:23;;;;;;;11.05;7.50;;;;;;;11.32;100.00;98479.25;5052524;28;20203;-84
2022/04/06 07:33:50;;;;;;;8.75;6.53;;;;;;;11.42;100.00;98474.88;5052446;28;20189;-81
2022/04/06 07:36:18;;;;;;;10.73;5.93;;;;;;;11.25;100.00;98476.19;5051727;28;20193;-82
2022/04/06 07:38:46;;;;;;;9.15;5.50;;;;;;;10.99;100.00;98481.78;5051057;28;20185;-83
2022/04/06 07:41:13;;;;;;;11.68;5.95;;;;;;;11.27;100.00;98485.00;5052007;28;20228;-83
2022/04/06 07:43:40;;;;;;;8.50;5.60;;;;;;;11.33;94.29;98487.22;5052685;28;20605;-82
2022/04/06 07:46:07;;;;;;;11.75;5.75;;;;;;;11.49;93.79;98478.78;5051422;28;20648;-81
2022/04/06 07:48:34;;;;;;;9.95;6.78;;;;;;;11.52;94.00;98480.38;5051307;28;20205;-81
2022/04/06 07:51:01;;;;;;;7.95;5.15;;;;;;;11.64;89.12;98472.16;5051749;28;20673;-82
2022/04/06 07:53:27;;;;;;;9.02;5.80;;;;;;;11.34;89.05;98478.16;5052812;28;20185;-83
2022/04/06 07:55:55;;;;;;;7.97;4.88;;;;;;;11.23;88.63;98475.44;5052068;28;20188;-82
2022/04/06 07:58:23;;;;;;;7.97;4.88;;;;;;;10.98;90.40;98468.44;5052512;28;20232;-82
2022/04/06 08:00:50;;;;;;;5.70;4.30;;;;;;;11.06;86.96;98461.47;5051708;28;20260;-82
2022/04/06 08:03:17;;;;;;;9.90;4.85;;;;;;;11.02;87.60;98481.53;5052493;28;20281;-83
2022/04/06 08:05:43;;;;;;;6.22;4.15;;;;;;;10.90;85.51;98468.16;5051845;28;20209;-82
2022/04/06 08:08:10;;;;;;;7.40;4.47;;;;;;;11.16;83.63;98476.91;5051843;28;20210;-82
2022/04/06 08:10:36;;;;;;;7.43;4.95;;;;;;;11.26;83.05;98477.88;5051914;28;20232;-82
2022/04/06 08:13:04;;;;;;;5.93;4.55;;;;;;;11.48;82.04;98480.59;5052082;28;20677;-82
2022/04/06 08:15:31;;;;;;;8.45;4.85;;;;;;;11.23;83.01;98479.00;5053504;28;20253;-83
2022/04/06 08:17:58;;;;;;;7.32;4.90;;;;;;;11.26;80.58;98478.78;5052241;28;20273;-81
2022/04/06 08:20:24;;;;;;;12.00;5.20;;;;;;;11.24;82.07;98496.03;5052437;28;20563;-81
2022/04/06 08:22:51;;;;;;;13.57;5.30;;;;;;;11.02;82.54;98480.69;5051326;28;20212;-80
2022/04/06 08:25:18;;;;;;;8.60;4.90;;;;;;;11.30;81.96;98492.00;5051860;28;20185;-83
2022/04/06 08:27:46;;;;;;;6.18;4.80;;;;;;;10.97;83.19;98488.28;5051792;28;20235;-83
2022/04/06 08:30:16;;;;;;;9.43;4.85;;;;;;;11.17;84.12;98494.78;5048551;28;20183;-82
2022/04/06 08:32:43;;;;;;;7.35;5.13;;;;;;;11.50;82.01;98490.41;5031782;28;20247;-83
2022/04/06 08:35:10;;;;;;;7.40;5.10;;;;;;;11.31;82.61;98488.34;5047887;28;20197;-84
2022/04/06 08:37:39;;;;;;;8.85;4.85;;;;;;;11.53;81.29;98492.84;5053342;28;20256;-82
2022/04/06 08:40:08;;;;;;;7.40;4.93;;;;;;;11.10;83.89;98493.53;5053370;28;20635;-82
2022/04/06 08:42:36;;;;;;;7.68;5.38;;;;;;;11.29;85.09;98490.28;5053677;28;20213;-84
2022/04/06 08:45:03;;;;;;;7.75;4.07;;;;;;;11.29;84.34;98498.38;5054210;28;20276;-81
2022/04/06 08:47:32;;;;;;;6.05;4.32;;;;;;;11.15;85.44;98499.47;5052528;28;20224;-81
2022/04/06 08:49:59;;;;;;;9.75;4.95;;;;;;;10.95;87.14;98490.22;5053642;28;20193;-82
2022/04/06 08:52:26;;;;;;;5.90;4.05;;;;;;;10.80;88.58;98492.25;5059318;28;20236;-84
2022/04/06 08:54:53;;;;;;;11.05;4.72;;;;;;;10.41;92.38;98505.06;5054337;28;20277;-84
2022/04/06 08:57:19;;;;;;;7.95;5.25;;;;;;;10.36;94.09;98499.19;5052744;28;20284;-82
2022/04/06 08:59:48;;;;;;;10.75;4.40;;;;;;;10.54;94.14;98492.41;5053468;28;20278;-82
2022/04/06 09:02:18;;;;;;;10.35;5.20;;;;;;;10.69;92.19;98493.06;5059024;28;20204;-83
2022/04/06 09:04:50;;;;;;;7.72;5.15;;;;;;;10.70;93.40;98489.41;5065926;28;20240;-84
2022/04/06 09:07:19;;;;;;;8.23;5.28;;;;;;;10.54;95.68;98492.41;5064664;28;20205;-84
2022/04/06 09:09:50;;;;;;;6.07;5.03;;;;;;;10.63;95.25;98497.09;5065362;28;20182;-79
2022/04/06 09:12:19;;;;;;;12.35;5.57;;;;;;;10.50;97.44;98496.31;5056061;28;20206;-84
2022/04/06 09:14:47;;;;;;;9.35;4.80;;;;;;;10.71;97.51;98480.34;5056551;28;20186;-85
2022/04/06 09:17:19;;;;;;;9.02;5.50;;;;;;;10.93;96.55;98487.63;5056688;28;20189;-84
2022/04/06 09:19:49;;;;;;;12.63;7.43;;;;;;;10.58;97.89;98488.53;5055516;28;20205;-84
2022/04/06 09:22:16;;;;;;;7.50;5.47;;;;;;;10.51;99.74;98494.47;5056202;28;20177;-85
2022/04/06 09:24:43;;;;;;;8.20;5.57;;;;;;;10.50;100.00;98495.44;5056385;28;20704;-85
2022/04/06 09:27:09;;;;;;;9.50;5.10;;;;;;;10.59;100.00;98503.69;5056397;28;20250;-85
2022/04/06 09:29:36;;;;;;;9.85;6.40;;;;;;;10.83;100.00;98492.00;5056327;28;20188;-84
2022/04/06 09:32:07;;;;;;;10.48;6.65;;;;;;;10.64;100.00;98508.72;5056240;28;20226;-85
2022/04/06 09:34:34;;;;;;;9.45;5.45;;;;;;;10.54;100.00;98505.00;5056704;28;20255;-85
2022/04/06 09:37:22;;;;;;;11.43;4.72;;;;;;;10.30;100.00;98505.00;5056995;28;20212;-84
2022/04/06 09:39:48;;;;;;;10.80;5.72;;;;;;;10.23;100.00;98504.56;5056555;28;20309;-84
2022/04/06 09:42:21;;;;;;;9.48;5.80;;;;;;;10.50;100.00;98500.84;5045607;28;20293;-84
2022/04/06 09:47:39;;;;;;;8.55;4.78;;;;;;;11.07;93.51;98500.88;5035496;28;20663;-84
2022/04/06 09:50:19;;;;;;;10.15;5.32;;;;;;;11.25;91.18;98500.44;5035433;28;20192;-83
2022/04/06 09:52:48;;;;;;;8.65;5.00;;;;;;;11.61;87.88;98502.06;5035456;28;20197;-84
2022/04/06 09:55:16;;;;;;;10.77;4.53;;;;;;;11.71;86.22;98487.84;5036531;28;20197;-83
2022/04/06 09:57:45;;;;;;;10.38;4.88;;;;;;;11.86;85.95;98486.59;5035762;28;20636;-84
2022/04/06 10:00:17;;;;;;;7.53;4.50;;;;;;;11.88;85.65;98488.22;5036976;28;20190;-83
2022/04/06 10:02:46;;;;;;;6.47;3.72;;;;;;;12.04;82.89;98484.28;5039131;28;20287;-82
2022/04/06 10:05:14;;;;;;;11.35;6.85;;;;;;;11.92;83.67;98483.44;5054888;28;20185;-82
2022/04/06 10:07:43;;;;;;;6.70;3.78;;;;;;;11.90;79.70;98482.72;5055447;28;20225;-82
2022/04/06 10:10:11;;;;;;;10.82;3.05;;;;;;;12.17;76.08;98471.50;5055256;28;20192;-83
2022/04/06 10:12:39;;;;;;;5.60;3.22;;;;;;;11.98;76.57;98473.97;5054006;28;20652;-82
2022/04/06 10:15:06;;;;;;;4.45;2.42;;;;;;;12.04;74.11;98470.78;5056010;28;20653;-83
2022/04/06 10:17:35;;;;;;;3.78;1.73;;;;;;;11.62;75.01;98471.44;5056432;28;20201;-84
2022/04/06 10:20:09;;;;;;;7.00;2.10;;;;;;;11.74;75.04;98460.66;5058680;28;20197;-84
2022/04/06 10:22:47;;;;;;;6.78;2.90;;;;;;;11.96;73.91;98457.94;5054788;28;20612;-84
2022/04/06 10:25:22;;;;;;;3.28;1.90;;;;;;;12.03;73.41;98458.28;5053856;28;20189;-83
2022/04/06 10:27:53;;;;;;;5.55;2.30;;;;;;;12.02;73.59;98459.25;5054709;28;20560;-83
2022/04/06 10:30:23;;;;;;;3.95;2.00;;;;;;;11.99;73.67;98454.97;5059181;28;20200;-81
2022/04/06 10:32:51;;;;;;;5.72;2.97;;;;;;;12.26;72.76;98451.00;5057672;28;20240;-82
2022/04/06 10:35:19;;;;;;;7.30;3.25;;;;;;;12.07;74.55;98451.66;5055091;28;20642;-84
2022/04/06 10:37:49;;;;;;;4.57;2.45;;;;;;;11.91;74.18;98462.84;5054079;28;20232;-83
2022/04/06 10:40:17;;;;;;;3.78;2.20;;;;;;;11.84;75.42;98448.97;5054876;28;20204;-83
2022/04/06 10:42:45;;;;;;;2.47;1.85;;;;;;;12.17;72.85;98447.22;5055289;28;20599;-84
2022/04/06 10:45:34;;;;;;;3.67;1.88;;;;;;;12.09;73.57;98449.69;5054705;28;20639;-84
2022/04/06 10:48:14;;;;;;;4.15;2.90;;;;;;;12.36;73.21;98446.53;5053661;28;20596;-84
2022/04/06 10:50:42;;;;;;;4.80;2.80;;;;;;;12.29;73.14;98446.19;5054820;28;20190;-83
2022/04/06 10:53:28;;;;;;;4.97;2.83;;;;;;;12.33;73.92;98452.19;5054617;28;20548;-84
2022/04/06 10:56:02;;;;;;;4.82;2.50;;;;;;;11.84;74.64;98435.47;5054411;28;20570;-84
2022/04/06 10:58:29;;;;;;;2.58;2.10;;;;;;;11.62;76.72;98440.91;5053647;28;20228;-82
2022/04/06 11:01:14;;;;;;;4.80;2.30;;;;;;;11.82;76.35;98448.22;5053698;28;20280;-84
2022/04/06 11:03:45;;;;;;;3.30;2.33;;;;;;;12.14;76.00;98441.19;5046882;28;20201;-84
2022/04/06 11:06:12;;;;;;;5.15;2.65;;;;;;;12.48;73.31;98428.44;5053903;28;20208;-84
2022/04/06 11:11:45;;;;;;;3.75;2.00;;;;;;;12.30;72.19;98436.22;5053290;28;21162;-83
2022/04/06 11:14:13;;;;;;;2.83;2.03;;;;;;;12.45;70.12;98424.16;5055129;28;20242;-85
2022/04/06 11:16:44;;;;;;;3.80;2.20;;;;;;;12.37;71.56;98423.09;5045984;28;20196;-83
2022/04/06 11:19:11;;;;;;;2.50;2.00;;;;;;;11.77;73.37;98434.25;5053672;28;20211;-84
2022/04/06 11:21:49;;;;;;;4.07;1.70;;;;;;;11.74;75.06;98437.22;5053153;28;20677;-84
2022/04/06 11:24:20;;;;;;;6.03;2.50;;;;;;;11.60;75.32;98434.78;5051661;28;20203;-83
2022/04/06 11:26:49;;;;;;;4.55;2.10;;;;;;;11.53;75.79;98431.72;5052460;28;20211;-85
2022/04/06 11:29:15;;;;;;;6.05;3.13;;;;;;;11.94;74.86;98424.84;5053144;28;20221;-85